Hlavní strana
METAR-TAF:

METAR-TAF

Letiště :

Accra, Ghana

zeměpisná šířka: 05-36N, zeměpisná délka: 000-10W, výška: 68 m

Aktuální stav počasí

Zpráva byla vytvořena před 42 minutami, v 22:00 UTC
Jihojihozápadní vítr 6 kt
Teplota 29°C
Vlhkost vzduchu 84%
Tlak 1012 hPa
Viditelnost 10 km a více
Žádná oblačnost pod 1500 m, nevyskytují se cumulonimby.

METAR: DGAA 232200Z 20006KT CAVOK 29/26 Q1012 NOSIG

Čas: 22:42 (22:42 UTC)

Předpověď počasí

Zpráva byla vytvořena před 5 hodinami a 42 minutami, v 17:00 UTC
Předpověď platná od 23 v 18 UTC do 24 v 24 UTC
Jihozápadní vítr 10 kt
Viditelnost: 7000 m
Skoro jasno ve výšce 1400 ft
Změna
od 24 v 06 UTC do 24 v 09 UTC
Západoseverozápadní vítr 5 kt
Viditelnost: 3000 m
kouřmo
Od 24 v 1200 UTC
Východojihovýchodní vítr 12 kt
Viditelnost: 5000 m
zákal

TAF: DGAA 231700Z 2318/2424 23010KT 7000 FEW014 BECMG 2406/2409 30005KT 3000 BR FM241200 12012KT 5000 HZ NSC

Stav a předpovědi počasí z více než 4 000 letišť (zprávy METAR a TAF).

Červené a žluté tečky na mapě představují dostupné meteorologické stanice.

Když kurzor umístíte na tečku, zobrazí se název stanice.

Pak kliknutím zobrazíte stav a předpověď počasí.

Chcete-li změnit mapu, kliknutím na zelené tlačítko se znaménkem +mapu přiblížíte, kliknutím na zelené tlačítko se znaménkem – mapu oddálíte a kliknutím na zelené šipky přejdete na sousední mapy.


METAR-TAF: